FIN1TC EFHK-ESSA
Flight info
| Callsign | FIN1TC |
|---|---|
| Flight time | 0h 42m |
| Altitude | 28000 |
| Route | ADIVO Y365 POGOK DCT RUNGA N872 XILAN |
| Aircraft | A320/M-SDE3FGHIRWY/LB1 |
Departure
| Time | 2026-04-22 18:58 |
|---|---|
| Airport | Helsinki Vantaa Airport (EFHK) |
Arrival
| Time | 2026-04-22 19:41 |
|---|---|
| Airport | Stockholm-Arlanda Airport (ESSA) |
| Time | Latitude | Longitude | Altitude | Speed | Heading |
|---|---|---|---|---|---|
| 2026-04-22 18:12 | 60.31746 | 24.97118 | 167 ft | 0 kts | 243° |
| 2026-04-22 18:47 | 60.31750 | 24.97132 | 166 ft | 4 kts | 243° |
| 2026-04-22 18:47 | 60.31762 | 24.97180 | 166 ft | 4 kts | 246° |
| 2026-04-22 18:47 | 60.31766 | 24.97196 | 166 ft | 0 kts | 256° |
| 2026-04-22 18:48 | 60.31766 | 24.97203 | 166 ft | 2 kts | 256° |
| 2026-04-22 18:48 | 60.31771 | 24.97236 | 166 ft | 3 kts | 217° |
| 2026-04-22 18:48 | 60.31787 | 24.97245 | 166 ft | 2 kts | 154° |
| 2026-04-22 18:48 | 60.31792 | 24.97239 | 166 ft | 0 kts | 154° |
| 2026-04-22 18:51 | 60.31790 | 24.97242 | 166 ft | 2 kts | 153° |
| 2026-04-22 18:51 | 60.31752 | 24.97279 | 166 ft | 10 kts | 155° |
| 2026-04-22 18:52 | 60.31679 | 24.97341 | 166 ft | 13 kts | 156° |
| 2026-04-22 18:52 | 60.31649 | 24.97498 | 160 ft | 16 kts | 30° |
| 2026-04-22 18:52 | 60.31755 | 24.97416 | 160 ft | 18 kts | 334° |
| 2026-04-22 18:52 | 60.31871 | 24.97296 | 162 ft | 20 kts | 334° |
| 2026-04-22 18:53 | 60.31995 | 24.97168 | 165 ft | 20 kts | 333° |
| 2026-04-22 18:53 | 60.32124 | 24.97033 | 166 ft | 21 kts | 332° |
| 2026-04-22 18:53 | 60.32210 | 24.96941 | 165 ft | 21 kts | 333° |
| 2026-04-22 18:53 | 60.32284 | 24.96740 | 166 ft | 14 kts | 230° |
| 2026-04-22 18:54 | 60.32239 | 24.96645 | 168 ft | 14 kts | 226° |
| 2026-04-22 18:54 | 60.32170 | 24.96492 | 168 ft | 16 kts | 228° |
| 2026-04-22 18:54 | 60.32093 | 24.96322 | 168 ft | 17 kts | 227° |
| 2026-04-22 18:54 | 60.32007 | 24.96135 | 168 ft | 19 kts | 227° |
| 2026-04-22 18:55 | 60.31917 | 24.95939 | 169 ft | 20 kts | 227° |
| 2026-04-22 18:55 | 60.31822 | 24.95727 | 169 ft | 21 kts | 228° |
| 2026-04-22 18:55 | 60.31723 | 24.95507 | 171 ft | 21 kts | 227° |
| 2026-04-22 18:55 | 60.31616 | 24.95278 | 170 ft | 23 kts | 227° |
| 2026-04-22 18:56 | 60.31509 | 24.95037 | 169 ft | 24 kts | 228° |
| 2026-04-22 18:56 | 60.31390 | 24.94775 | 164 ft | 27 kts | 227° |
| 2026-04-22 18:56 | 60.31257 | 24.94479 | 159 ft | 29 kts | 227° |
| 2026-04-22 18:56 | 60.31119 | 24.94176 | 157 ft | 30 kts | 227° |
| 2026-04-22 18:57 | 60.31038 | 24.93865 | 159 ft | 22 kts | 279° |
| 2026-04-22 18:57 | 60.31151 | 24.93721 | 158 ft | 21 kts | 11° |
| 2026-04-22 18:57 | 60.31205 | 24.93804 | 159 ft | 0 kts | 47° |
| 2026-04-22 18:57 | 60.31206 | 24.93806 | 159 ft | 4 kts | 47° |
| 2026-04-22 18:58 | 60.31407 | 24.94227 | 161 ft | 79 kts | 45° |
| 2026-04-22 18:58 | 60.31916 | 24.95365 | 174 ft | 137 kts | 47° |
| 2026-04-22 18:58 | 60.32668 | 24.97008 | 310 ft | 169 kts | 44° |
| 2026-04-22 18:58 | 60.33425 | 24.98681 | 1075 ft | 158 kts | 40° |
| 2026-04-22 18:59 | 60.34185 | 25.00358 | 1625 ft | 169 kts | 38° |
| 2026-04-22 18:59 | 60.35039 | 25.02213 | 1918 ft | 191 kts | 38° |
| 2026-04-22 18:59 | 60.35998 | 25.04296 | 2222 ft | 215 kts | 39° |
| 2026-04-22 18:59 | 60.37060 | 25.06621 | 2801 ft | 232 kts | 40° |
| 2026-04-22 19:00 | 60.38153 | 25.09047 | 3705 ft | 234 kts | 40° |
| 2026-04-22 19:00 | 60.39288 | 25.11409 | 4616 ft | 233 kts | 31° |
| 2026-04-22 19:00 | 60.40725 | 25.12729 | 5473 ft | 227 kts | 7° |
| 2026-04-22 19:00 | 60.42284 | 25.12899 | 6343 ft | 228 kts | 0° |
| 2026-04-22 19:01 | 60.43881 | 25.12952 | 7239 ft | 230 kts | 359° |
| 2026-04-22 19:01 | 60.45504 | 25.12998 | 8191 ft | 231 kts | 359° |
| 2026-04-22 19:01 | 60.47079 | 25.12836 | 9128 ft | 230 kts | 347° |
| 2026-04-22 19:01 | 60.48513 | 25.11386 | 10000 ft | 237 kts | 324° |
| 2026-04-22 19:02 | 60.49478 | 25.08562 | 10759 ft | 258 kts | 299° |
| 2026-04-22 19:02 | 60.49654 | 25.04655 | 11091 ft | 306 kts | 273° |
| 2026-04-22 19:02 | 60.49136 | 25.00223 | 11349 ft | 337 kts | 263° |
| 2026-04-22 19:02 | 60.48321 | 24.95655 | 11935 ft | 351 kts | 258° |
| 2026-04-22 19:03 | 60.47369 | 24.91028 | 12530 ft | 359 kts | 257° |
| 2026-04-22 19:03 | 60.46378 | 24.86338 | 13178 ft | 365 kts | 258° |
| 2026-04-22 19:03 | 60.45398 | 24.81561 | 13826 ft | 369 kts | 259° |
| 2026-04-22 19:03 | 60.44450 | 24.76729 | 14435 ft | 371 kts | 260° |
| 2026-04-22 19:04 | 60.43525 | 24.71830 | 15075 ft | 374 kts | 261° |
| 2026-04-22 19:04 | 60.42611 | 24.66875 | 15688 ft | 377 kts | 262° |
| 2026-04-22 19:04 | 60.41698 | 24.61878 | 16310 ft | 380 kts | 262° |
| 2026-04-22 19:04 | 60.40781 | 24.56845 | 16917 ft | 383 kts | 262° |
| 2026-04-22 19:05 | 60.39855 | 24.51771 | 17542 ft | 386 kts | 262° |
| 2026-04-22 19:05 | 60.38914 | 24.46660 | 18143 ft | 390 kts | 262° |
| 2026-04-22 19:05 | 60.37958 | 24.41507 | 18671 ft | 393 kts | 262° |
| 2026-04-22 19:05 | 60.36991 | 24.36326 | 19240 ft | 396 kts | 262° |
| 2026-04-22 19:06 | 60.36011 | 24.31109 | 19796 ft | 398 kts | 262° |
| 2026-04-22 19:06 | 60.35021 | 24.25860 | 20342 ft | 401 kts | 262° |
| 2026-04-22 19:06 | 60.34021 | 24.20573 | 20883 ft | 404 kts | 262° |
| 2026-04-22 19:07 | 60.31997 | 24.09912 | 21846 ft | 410 kts | 260° |
| 2026-04-22 19:07 | 60.30971 | 24.04513 | 22361 ft | 413 kts | 260° |
| 2026-04-22 19:07 | 60.29955 | 23.99085 | 22876 ft | 413 kts | 262° |
| 2026-04-22 19:07 | 60.29247 | 23.93538 | 23363 ft | 407 kts | 269° |
| 2026-04-22 19:08 | 60.28642 | 23.87940 | 23777 ft | 410 kts | 269° |
| 2026-04-22 19:08 | 60.28046 | 23.82383 | 24175 ft | 412 kts | 269° |
| 2026-04-22 19:08 | 60.27437 | 23.76719 | 24566 ft | 415 kts | 269° |
| 2026-04-22 19:08 | 60.26821 | 23.71027 | 24941 ft | 418 kts | 269° |
| 2026-04-22 19:09 | 60.26194 | 23.65285 | 25322 ft | 421 kts | 269° |
| 2026-04-22 19:09 | 60.25558 | 23.59516 | 25682 ft | 423 kts | 269° |
| 2026-04-22 19:09 | 60.24914 | 23.53723 | 26036 ft | 426 kts | 269° |
| 2026-04-22 19:09 | 60.24265 | 23.47885 | 26383 ft | 429 kts | 269° |
| 2026-04-22 19:10 | 60.23610 | 23.42014 | 26740 ft | 431 kts | 269° |
| 2026-04-22 19:10 | 60.22948 | 23.36107 | 27079 ft | 434 kts | 268° |
| 2026-04-22 19:10 | 60.22281 | 23.30169 | 27373 ft | 436 kts | 268° |
| 2026-04-22 19:10 | 60.21607 | 23.24207 | 27703 ft | 439 kts | 268° |
| 2026-04-22 19:11 | 60.20924 | 23.18207 | 27850 ft | 439 kts | 268° |
| 2026-04-22 19:11 | 60.20239 | 23.12322 | 27868 ft | 426 kts | 268° |
| 2026-04-22 19:11 | 60.19569 | 23.06575 | 27868 ft | 421 kts | 268° |
| 2026-04-22 19:11 | 60.18909 | 23.00845 | 27879 ft | 420 kts | 268° |
| 2026-04-22 19:12 | 60.18255 | 22.95140 | 27878 ft | 419 kts | 268° |
| 2026-04-22 19:12 | 60.17600 | 22.89428 | 27887 ft | 419 kts | 268° |
| 2026-04-22 19:12 | 60.16942 | 22.83730 | 27879 ft | 419 kts | 268° |
| 2026-04-22 19:12 | 60.16275 | 22.78037 | 27884 ft | 419 kts | 268° |
| 2026-04-22 19:13 | 60.15601 | 22.72329 | 27883 ft | 419 kts | 268° |
| 2026-04-22 19:13 | 60.14923 | 22.66640 | 27899 ft | 419 kts | 268° |
| 2026-04-22 19:13 | 60.14246 | 22.60946 | 27895 ft | 419 kts | 268° |
| 2026-04-22 19:13 | 60.13575 | 22.55264 | 27888 ft | 419 kts | 268° |
| 2026-04-22 19:14 | 60.12900 | 22.49581 | 27856 ft | 419 kts | 268° |
| 2026-04-22 19:14 | 60.12221 | 22.43894 | 27891 ft | 420 kts | 268° |
| 2026-04-22 19:14 | 60.11537 | 22.38182 | 27898 ft | 421 kts | 268° |
| 2026-04-22 19:14 | 60.10850 | 22.32479 | 27915 ft | 421 kts | 268° |
| 2026-04-22 19:15 | 60.10394 | 22.28712 | 27919 ft | 421 kts | 268° |
| 2026-04-22 19:15 | 60.09467 | 22.21100 | 27920 ft | 420 kts | 268° |
| 2026-04-22 19:15 | 60.08769 | 22.15410 | 27919 ft | 420 kts | 268° |
| 2026-04-22 19:15 | 60.08070 | 22.09728 | 27919 ft | 420 kts | 267° |
| 2026-04-22 19:16 | 60.07368 | 22.04041 | 27880 ft | 420 kts | 267° |
| 2026-04-22 19:16 | 60.06662 | 21.98368 | 27889 ft | 420 kts | 267° |
| 2026-04-22 19:16 | 60.05954 | 21.92690 | 27894 ft | 421 kts | 267° |
| 2026-04-22 19:16 | 60.05243 | 21.87006 | 27899 ft | 421 kts | 267° |
| 2026-04-22 19:17 | 60.04531 | 21.81319 | 27903 ft | 421 kts | 267° |
| 2026-04-22 19:17 | 60.03816 | 21.75641 | 27906 ft | 421 kts | 266° |
| 2026-04-22 19:17 | 60.03098 | 21.69964 | 27869 ft | 421 kts | 266° |
| 2026-04-22 19:17 | 60.02379 | 21.64275 | 27924 ft | 423 kts | 266° |
| 2026-04-22 19:18 | 60.01654 | 21.58556 | 27942 ft | 424 kts | 266° |
| 2026-04-22 19:18 | 60.00929 | 21.52853 | 27943 ft | 424 kts | 266° |
| 2026-04-22 19:18 | 60.00199 | 21.47159 | 27947 ft | 424 kts | 266° |
| 2026-04-22 19:18 | 59.99463 | 21.41454 | 27949 ft | 423 kts | 266° |
| 2026-04-22 19:19 | 59.98722 | 21.35769 | 27955 ft | 424 kts | 266° |
| 2026-04-22 19:19 | 59.97951 | 21.30075 | 27954 ft | 424 kts | 265° |
| 2026-04-22 19:19 | 59.97160 | 21.24403 | 27960 ft | 424 kts | 265° |
| 2026-04-22 19:19 | 59.96356 | 21.18730 | 27958 ft | 424 kts | 265° |
| 2026-04-22 19:20 | 59.95552 | 21.13070 | 27953 ft | 424 kts | 265° |
| 2026-04-22 19:20 | 59.94750 | 21.07401 | 27952 ft | 424 kts | 265° |
| 2026-04-22 19:20 | 59.93950 | 21.01744 | 27961 ft | 424 kts | 265° |
| 2026-04-22 19:20 | 59.93150 | 20.96087 | 27952 ft | 424 kts | 265° |
| 2026-04-22 19:21 | 59.92349 | 20.90434 | 27896 ft | 424 kts | 265° |
| 2026-04-22 19:21 | 59.91547 | 20.84780 | 27956 ft | 425 kts | 265° |
| 2026-04-22 19:21 | 59.90742 | 20.79112 | 27955 ft | 426 kts | 264° |
| 2026-04-22 19:21 | 59.89941 | 20.73506 | 27972 ft | 426 kts | 264° |
| 2026-04-22 19:22 | 59.89114 | 20.67764 | 27983 ft | 426 kts | 264° |
| 2026-04-22 19:22 | 59.88295 | 20.62096 | 27983 ft | 426 kts | 264° |
| 2026-04-22 19:22 | 59.87483 | 20.56500 | 27979 ft | 429 kts | 264° |
| 2026-04-22 19:22 | 59.86641 | 20.50639 | 27975 ft | 441 kts | 264° |
| 2026-04-22 19:23 | 59.85792 | 20.44740 | 27977 ft | 446 kts | 264° |
| 2026-04-22 19:23 | 59.84926 | 20.38801 | 27984 ft | 447 kts | 264° |
| 2026-04-22 19:23 | 59.84052 | 20.32866 | 27982 ft | 448 kts | 263° |
| 2026-04-22 19:23 | 59.83172 | 20.26926 | 27979 ft | 448 kts | 263° |
| 2026-04-22 19:24 | 59.82287 | 20.20983 | 27984 ft | 448 kts | 263° |
| 2026-04-22 19:24 | 59.81401 | 20.15053 | 27985 ft | 448 kts | 263° |
| 2026-04-22 19:24 | 59.80513 | 20.09121 | 27973 ft | 448 kts | 263° |
| 2026-04-22 19:24 | 59.79627 | 20.03192 | 27976 ft | 448 kts | 262° |
| 2026-04-22 19:25 | 59.78748 | 19.97308 | 28004 ft | 451 kts | 262° |
| 2026-04-22 19:25 | 59.77843 | 19.91291 | 27866 ft | 446 kts | 262° |
| 2026-04-22 19:25 | 59.76965 | 19.85537 | 27230 ft | 437 kts | 262° |
| 2026-04-22 19:25 | 59.76085 | 19.79811 | 26268 ft | 430 kts | 262° |
| 2026-04-22 19:26 | 59.75221 | 19.74172 | 25369 ft | 424 kts | 263° |
| 2026-04-22 19:26 | 59.74381 | 19.68601 | 24486 ft | 418 kts | 264° |
| 2026-04-22 19:26 | 59.73605 | 19.63096 | 23651 ft | 411 kts | 265° |
| 2026-04-22 19:26 | 59.72869 | 19.57655 | 22712 ft | 406 kts | 265° |
| 2026-04-22 19:27 | 59.72154 | 19.52294 | 21822 ft | 400 kts | 265° |
| 2026-04-22 19:27 | 59.71447 | 19.47006 | 20990 ft | 394 kts | 265° |
| 2026-04-22 19:27 | 59.70740 | 19.41796 | 20168 ft | 389 kts | 264° |
| 2026-04-22 19:27 | 59.70032 | 19.36660 | 19348 ft | 384 kts | 264° |
| 2026-04-22 19:28 | 59.69326 | 19.31605 | 18583 ft | 379 kts | 263° |
| 2026-04-22 19:28 | 59.68623 | 19.26614 | 17756 ft | 374 kts | 263° |
| 2026-04-22 19:28 | 59.67929 | 19.21697 | 16881 ft | 369 kts | 263° |
| 2026-04-22 19:28 | 59.67240 | 19.16820 | 16044 ft | 366 kts | 263° |
| 2026-04-22 19:29 | 59.66555 | 19.12002 | 15239 ft | 362 kts | 263° |
| 2026-04-22 19:29 | 59.65877 | 19.07231 | 14445 ft | 359 kts | 263° |
| 2026-04-22 19:29 | 59.65203 | 19.02492 | 13758 ft | 353 kts | 263° |
| 2026-04-22 19:29 | 59.64546 | 18.97927 | 13322 ft | 338 kts | 263° |
| 2026-04-22 19:30 | 59.64123 | 18.95011 | 13065 ft | 329 kts | 263° |
| 2026-04-22 19:30 | 59.63301 | 18.89349 | 12536 ft | 312 kts | 263° |
| 2026-04-22 19:30 | 59.62715 | 18.85303 | 12167 ft | 303 kts | 263° |
| 2026-04-22 19:30 | 59.62139 | 18.81299 | 11788 ft | 304 kts | 263° |
| 2026-04-22 19:31 | 59.61563 | 18.77281 | 11401 ft | 304 kts | 263° |
| 2026-04-22 19:31 | 59.60985 | 18.73267 | 11011 ft | 304 kts | 263° |
| 2026-04-22 19:31 | 59.60408 | 18.69263 | 10620 ft | 304 kts | 263° |
| 2026-04-22 19:31 | 59.59826 | 18.65245 | 10228 ft | 304 kts | 262° |
| 2026-04-22 19:32 | 59.59244 | 18.61264 | 9940 ft | 300 kts | 262° |
| 2026-04-22 19:32 | 59.58665 | 18.57337 | 9758 ft | 298 kts | 262° |
| 2026-04-22 19:32 | 59.58094 | 18.53459 | 9286 ft | 298 kts | 262° |
| 2026-04-22 19:32 | 59.57511 | 18.49515 | 8958 ft | 293 kts | 261° |
| 2026-04-22 19:33 | 59.56952 | 18.45742 | 8583 ft | 291 kts | 261° |
| 2026-04-22 19:33 | 59.56385 | 18.41918 | 8202 ft | 289 kts | 261° |
| 2026-04-22 19:33 | 59.55820 | 18.38093 | 7487 ft | 294 kts | 260° |
| 2026-04-22 19:33 | 59.55249 | 18.34241 | 6819 ft | 289 kts | 260° |
| 2026-04-22 19:34 | 59.54686 | 18.30498 | 6293 ft | 280 kts | 259° |
| 2026-04-22 19:34 | 59.54133 | 18.26823 | 5806 ft | 280 kts | 259° |
| 2026-04-22 19:34 | 59.53582 | 18.23135 | 5334 ft | 281 kts | 259° |
| 2026-04-22 19:34 | 59.53075 | 18.19483 | 4949 ft | 274 kts | 265° |
| 2026-04-22 19:35 | 59.52732 | 18.15731 | 4325 ft | 280 kts | 266° |
| 2026-04-22 19:35 | 59.52393 | 18.11944 | 3804 ft | 282 kts | 267° |
| 2026-04-22 19:35 | 59.52162 | 18.09368 | 3458 ft | 283 kts | 267° |
| 2026-04-22 19:35 | 59.51707 | 18.04463 | 3291 ft | 265 kts | 268° |
| 2026-04-22 19:36 | 59.51377 | 18.00999 | 3210 ft | 250 kts | 268° |
| 2026-04-22 19:36 | 59.51066 | 17.97731 | 3107 ft | 237 kts | 268° |
| 2026-04-22 19:36 | 59.50773 | 17.94624 | 3000 ft | 226 kts | 269° |
| 2026-04-22 19:36 | 59.50609 | 17.91648 | 2896 ft | 207 kts | 288° |
| 2026-04-22 19:37 | 59.51117 | 17.89269 | 2814 ft | 178 kts | 319° |
| 2026-04-22 19:37 | 59.52075 | 17.87910 | 2591 ft | 168 kts | 344° |
| 2026-04-22 19:37 | 59.53194 | 17.87577 | 2512 ft | 162 kts | 3° |
| 2026-04-22 19:37 | 59.54278 | 17.87918 | 2349 ft | 155 kts | 7° |
| 2026-04-22 19:38 | 59.55359 | 17.88307 | 1930 ft | 159 kts | 6° |
| 2026-04-22 19:38 | 59.56438 | 17.88696 | 1641 ft | 155 kts | 7° |
| 2026-04-22 19:38 | 59.57452 | 17.89063 | 1415 ft | 143 kts | 6° |
| 2026-04-22 19:38 | 59.58401 | 17.89405 | 1227 ft | 135 kts | 7° |
| 2026-04-22 19:39 | 59.59313 | 17.89733 | 1029 ft | 132 kts | 7° |
| 2026-04-22 19:39 | 59.60222 | 17.90059 | 841 ft | 133 kts | 7° |
| 2026-04-22 19:39 | 59.61138 | 17.90389 | 657 ft | 134 kts | 7° |
| 2026-04-22 19:39 | 59.62051 | 17.90718 | 491 ft | 132 kts | 7° |
| 2026-04-22 19:40 | 59.62951 | 17.91037 | 289 ft | 131 kts | 9° |
| 2026-04-22 19:40 | 59.63554 | 17.91255 | 211 ft | 130 kts | 9° |
| 2026-04-22 19:40 | 59.64412 | 17.91577 | 109 ft | 114 kts | 10° |
| 2026-04-22 19:40 | 59.65072 | 17.91810 | 104 ft | 77 kts | 10° |
| 2026-04-22 19:41 | 59.65511 | 17.91964 | 107 ft | 54 kts | 10° |
| 2026-04-22 19:41 | 59.65745 | 17.92168 | 107 ft | 26 kts | 38° |
| 2026-04-22 19:41 | 59.65784 | 17.92373 | 103 ft | 15 kts | 123° |
| 2026-04-22 19:41 | 59.65696 | 17.92411 | 105 ft | 13 kts | 193° |
| 2026-04-22 19:42 | 59.65612 | 17.92373 | 104 ft | 12 kts | 193° |
| 2026-04-22 19:42 | 59.65536 | 17.92338 | 105 ft | 11 kts | 193° |
| 2026-04-22 19:42 | 59.65468 | 17.92308 | 104 ft | 10 kts | 191° |
| 2026-04-22 19:42 | 59.65406 | 17.92296 | 105 ft | 8 kts | 190° |
| 2026-04-22 19:43 | 59.65252 | 17.92239 | 107 ft | 14 kts | 190° |
| 2026-04-22 19:43 | 59.65150 | 17.92231 | 108 ft | 14 kts | 137° |
| 2026-04-22 19:43 | 59.65083 | 17.92338 | 110 ft | 14 kts | 181° |
| 2026-04-22 19:44 | 59.64969 | 17.92299 | 112 ft | 19 kts | 187° |
| 2026-04-22 19:44 | 59.64838 | 17.92250 | 112 ft | 20 kts | 192° |
| 2026-04-22 19:44 | 59.64714 | 17.92205 | 112 ft | 14 kts | 190° |
| 2026-04-22 19:44 | 59.64601 | 17.92168 | 112 ft | 19 kts | 191° |
| 2026-04-22 19:45 | 59.64460 | 17.92119 | 113 ft | 17 kts | 190° |
| 2026-04-22 19:45 | 59.64368 | 17.92187 | 114 ft | 17 kts | 114° |
| 2026-04-22 19:45 | 59.64319 | 17.92394 | 113 ft | 18 kts | 117° |
| 2026-04-22 19:45 | 59.64271 | 17.92591 | 113 ft | 13 kts | 99° |
| 2026-04-22 19:46 | 59.64316 | 17.92705 | 112 ft | 8 kts | 42° |
| 2026-04-22 19:46 | 59.64352 | 17.92767 | 112 ft | 0 kts | 40° |
| 2026-04-22 19:46 | 59.64358 | 17.92776 | 112 ft | 0 kts | 40° |
| 2026-04-22 19:46 | 59.64368 | 17.92794 | 111 ft | 2 kts | 41° |
| 2026-04-22 19:47 | 59.64374 | 17.92804 | 112 ft | 0 kts | 41° |